Bosaso Airport

Airport
ICAO code: 
HCMF
Summary
ICAO Region: 
AFI
Territory: 
Location: 
Bosaso,
Coordinates: 
Aerial View: 
11° 16' 30.846" N, 49° 8' 21.232" E
Metar
Observation
HCMF 170600Z 18005KT 9999 FEW026 26/19 Q1015
Station
BOSASO
Date/Time
2022-01-17 06:00:00
Wind direction
180°
Wind speed
05 kts
Lowest cloud amount
few clouds
Temperature
26°C
Dew point
19°C
Humidity
65%
QNH
1015 hPa
Weather condition
n/a

Description

Bender Qassim International Airport, also known as Bosaso Airport, is an airport in Somalia. It is the third largest airport in the country after the Aden Adde International Airport in Mogadishu and the Hargeisa International Airport in Hargeisa.

Climatology

Airport map: 
Aerial View: 

SKYbrary Partners:

Safety knowledge contributed by: